Latest Coastal Weather Observations for Kalumburu

IDW60701

Issued at 7:22 am WST Thursday 2 July 2015 (issued every 10 minutes, with the page automatically refreshed every 10 minutes)

About coastal observations | Map of coastal stations | Coastal observations for WA | Marine services | Other Formats
Station Details ID: 001019 Name: KALUMBURU Lat: -14.30 Lon: 126.65 Height: 23.0 m
Data from the previous 72 hours. | See also: Recent months at Kalumburu
Date/Time
WST
Temp

°C
Wind Pressure Rain
since 9am
mm
Weather Cloud Vis
km
Sea
Height
m
Swell
Dir
 
Speed
knots
Gust
knots
hPa Trend Height
m
Period
s
Dir
02/07:00am 21.2 E 1 4 1018.2 - 0.0 - - - - - - -
02/06:30am 17.1 CALM 0 0 1018.0 - 0.0 - - - - - - -
02/06:00am 16.1 CALM 0 3 1017.8 - 0.0 - - - - - - -
02/05:30am 16.7 WSW 3 4 1017.6 - 0.0 - - - - - - -
02/05:00am 18.2 SW 5 6 1017.6 - 0.0 - - - - - - -
02/04:30am 18.6 SW 5 7 1017.5 - 0.0 - - - - - - -
02/04:00am 19.0 SSW 5 6 1017.4 - 0.0 - - - - - - -
02/03:30am 17.4 S 4 5 1017.2 - 0.0 - - - - - - -
02/03:00am 18.3 S 5 6 1017.0 - 0.0 - - - - - - -
02/02:30am 15.6 SSE 3 5 1017.0 - 0.0 - - - - - - -
02/02:00am 16.8 SSW 4 7 1017.2 - 0.0 - - - - - - -
02/01:30am 14.9 S 1 4 1017.6 - 0.0 - - - - - - -
02/01:00am 15.5 S 1 4 1017.8 - 0.0 - - - - - - -
02/12:30am 15.4 S 2 4 1018.0 - 0.0 - - - - - - -
02/12:00am 16.3 S 3 4 1018.0 - 0.0 - - - - - - -
 
Date/Time
WST
Temp

°C
Wind Pressure Rain
since 9am
mm
Weather Cloud Vis
km
Sea
Height
m
Swell
Dir
 
Speed
knots
Gust
knots
hPa Trend Height
m
Period
s
Dir
01/11:30pm 16.0 SSE 1 4 1017.8 - 0.0 - - - - - - -
01/11:00pm 16.6 S 3 4 1017.6 - 0.0 - - - - - - -
01/10:30pm 17.4 CALM 0 0 1017.8 - 0.0 - - - - - - -
01/10:00pm 18.2 SSW 1 4 1017.8 - 0.0 - - - - - - -
01/09:30pm 18.9 CALM 0 0 1017.8 - 0.0 - - - - - - -
01/09:00pm 21.4 S 2 4 1017.7 - 0.0 - - - - - - -
01/08:30pm 22.7 SE 3 3 1017.5 - 0.0 - - - - - - -
01/08:00pm 23.7 SE 4 5 1017.3 - 0.0 - - - - - - -
01/07:30pm 23.8 SE 4 5 1017.0 - 0.0 - - - - - - -
01/07:00pm 24.1 SE 4 5 1016.6 - 0.0 - - - - - - -
01/06:30pm 25.7 ESE 4 6 1016.2 - 0.0 - - - - - - -
01/06:00pm 26.9 ENE 5 7 1015.7 - 0.0 - - - - - - -
01/05:30pm 27.9 E 6 9 1015.4 - 0.0 - - - - - - -
01/05:00pm 29.0 E 7 12 1015.1 - 0.0 - - - - - - -
01/04:30pm 30.2 E 8 13 1014.8 - 0.0 - - - - - - -
01/04:00pm 31.0 E 7 11 1014.5 - 0.0 - - - - - - -
01/03:30pm 31.7 E 7 12 1014.4 - 0.0 - - - - - - -
01/03:00pm 31.9 ESE 9 15 1014.3 - 0.0 - - - - - - -
01/02:30pm 32.4 E 7 12 1014.3 - 0.0 - - - - - - -
01/02:00pm 32.4 ENE 8 17 1014.4 - 0.0 - - - - - - -
01/01:30pm 32.9 ESE 8 14 1014.7 - 0.0 - - - - - - -
01/01:00pm 32.1 ENE 9 14 1015.1 - 0.0 - - - - - - -
01/12:30pm 32.4 E 9 14 1015.8 - 0.0 - - - - - - -
01/12:00pm 31.7 E 9 19 1016.4 - 0.0 - - - - - - -
01/11:30am 31.9 E 10 16 1017.0 - 0.0 - - - - - - -
01/11:00am 31.8 E 9 14 1017.5 - 0.0 - - - - - - -
01/10:30am 30.5 E 11 16 1018.1 - 0.0 - - - - - - -
01/10:00am 30.1 ESE 11 19 1018.4 - 0.0 - - - - - - -
01/09:30am 29.0 ESE 11 16 1018.6 - 0.0 - - - - - - -
01/09:00am 28.5 ESE 10 16 1018.9 - 0.0 - - - - - - -
01/08:30am 25.8 SSW 4 5 1019.0 - 0.0 - - - - - - -
01/08:00am 22.8 S 4 5 1019.1 - 0.0 - - - - - - -
01/07:30am 20.0 SSW 4 5 1019.0 - 0.0 - - - - - - -
01/07:00am 18.1 SSW 5 9 1018.8 - 0.0 - - - - - - -
01/06:30am 17.0 SSW 5 7 1018.6 - 0.0 - - - - - - -
01/06:00am 15.4 SSW 4 7 1018.4 - 0.0 - - - - - - -
01/05:30am 13.8 SSW 3 5 1018.1 - 0.0 - - - - - - -
01/05:00am 13.3 S 3 5 1017.7 - 0.0 - - - - - - -
01/04:30am 12.4 SSW 1 3 1017.7 - 0.0 - - - - - - -
01/04:00am 12.4 SSW 3 4 1017.7 - 0.0 - - - - - - -
01/03:30am 13.3 SSW 2 6 1017.5 - 0.0 - - - - - - -
01/03:00am 12.8 S 1 3 1017.6 - 0.0 - - - - - - -
01/02:30am 12.9 SSW 1 4 1017.6 - 0.0 - - - - - - -
01/02:00am 13.2 CALM 0 0 1017.9 - 0.0 - - - - - - -
01/01:30am 13.5 SSW 2 5 1018.0 - 0.0 - - - - - - -
01/01:00am 14.5 CALM 0 0 1018.1 - 0.0 - - - - - - -
01/12:30am 16.4 S 4 5 1018.1 - 0.0 - - - - - - -
01/12:00am 15.9 SSW 4 6 1018.2 - 0.0 - - - - - - -
 
Date/Time
WST
Temp

°C
Wind Pressure Rain
since 9am
mm
Weather Cloud Vis
km
Sea
Height
m
Swell
Dir
 
Speed
knots
Gust
knots
hPa Trend Height
m
Period
s
Dir
30/11:30pm 16.0 S 2 4 1018.0 - 0.0 - - - - - - -
30/11:00pm 16.7 CALM 0 0 1017.9 - 0.0 - - - - - - -
30/10:30pm 17.0 WSW 2 5 1017.8 - 0.0 - - - - - - -
30/10:00pm 20.5 SW 4 6 1017.8 - 0.0 - - - - - - -
30/09:30pm 21.3 SSW 5 6 1017.9 - 0.0 - - - - - - -
30/09:00pm 20.9 SSE 3 4 1017.8 - 0.0 - - - - - - -
30/08:30pm 22.7 ESE 3 5 1017.6 - 0.0 - - - - - - -
30/08:00pm 23.6 SSE 4 5 1017.4 - 0.0 - - - - - - -
30/07:30pm 23.4 E 4 7 1017.1 - 0.0 - - - - - - -
30/07:00pm 22.7 ESE 4 6 1016.6 - 0.0 - - - - - - -
30/06:30pm 23.0 SE 3 5 1016.1 - 0.0 - - - - - - -
30/06:00pm 24.3 E 3 4 1015.7 - 0.0 - - - - - - -
30/05:30pm 26.7 ENE 4 6 1015.4 - 0.0 - - - - - - -
30/05:00pm 28.7 E 5 8 1015.0 - 0.0 - - - - - - -
30/04:30pm 29.9 E 7 11 1014.7 - 0.0 - - - - - - -
30/04:00pm 30.5 ESE 7 11 1014.4 - 0.0 - - - - - - -
30/03:30pm 31.4 E 6 11 1014.2 - 0.0 - - - - - - -
30/03:00pm 31.4 E 7 17 1014.1 - 0.0 - - - - - - -
30/02:30pm 31.7 SE 6 12 1014.1 - 0.0 - - - - - - -
30/02:00pm 32.1 E 6 10 1014.4 - 0.0 - - - - - - -
30/01:30pm 31.7 SE 5 13 1014.7 - 0.0 - - - - - - -
30/01:00pm 31.6 NE 8 14 1015.2 - 0.0 - - - - - - -
30/12:30pm 32.0 ESE 7 13 1015.6 - 0.0 - - - - - - -
30/12:00pm 30.9 ENE 9 17 1016.0 - 0.0 - - - - - - -
30/11:30am 31.8 ENE 9 16 1016.7 - 0.0 - - - - - - -
30/11:00am 30.5 SE 9 13 1017.3 - 0.0 - - - - - - -
30/10:30am 29.9 SE 9 16 1017.7 - 0.0 - - - - - - -
30/10:00am 29.3 ESE 11 17 1018.1 - 0.0 - - - - - - -
30/09:30am 28.5 ESE 10 16 1018.3 - 0.0 - - - - - - -
30/09:00am 26.1 SSW 5 7 1018.6 - 0.0 - - - - - - -
30/08:30am 23.8 S 4 6 1018.9 - 0.0 - - - - - - -
30/08:00am 20.8 SW 3 4 1019.0 - 0.0 - - - - - - -
30/07:30am 18.5 SW 3 5 1018.8 - 0.0 - - - - - - -
30/07:00am 16.4 SSE 5 8 1018.5 - 0.0 - - - - - - -
30/06:30am 12.9 S 4 7 1018.0 - 0.0 - - - - - - -
30/06:00am 10.5 CALM 0 3 1017.7 - 0.0 - - - - - - -
30/05:30am 11.2 CALM 0 0 1017.4 - 0.0 - - - - - - -
30/05:00am 11.3 CALM 0 0 1017.3 - 0.0 - - - - - - -
30/04:30am 11.8 CALM 0 0 1017.2 - 0.0 - - - - - - -
30/04:00am 11.7 CALM 0 0 1017.1 - 0.0 - - - - - - -
30/03:30am 11.5 CALM 0 0 1017.1 - 0.0 - - - - - - -
30/03:00am 11.8 CALM 0 0 1017.1 - 0.0 - - - - - - -
30/02:30am 12.2 SSW 1 3 1017.2 - 0.0 - - - - - - -
30/02:00am 12.7 CALM 0 0 1017.1 - 0.0 - - - - - - -
30/01:30am 13.1 CALM 0 0 1017.3 - 0.0 - - - - - - -
30/01:00am 13.0 S 1 4 1017.4 - 0.0 - - - - - - -
30/12:30am 13.8 CALM 0 3 1017.5 - 0.0 - - - - - - -
30/12:00am 14.2 E 2 4 1017.6 - 0.0 - - - - - - -
 
Date/Time
WST
Temp

°C
Wind Pressure Rain
since 9am
mm
Weather Cloud Vis
km
Sea
Height
m
Swell
Dir
 
Speed
knots
Gust
knots
hPa Trend Height
m
Period
s
Dir
29/11:30pm 15.2 SSE 2 4 1017.5 - 0.0 - - - - - - -
29/11:00pm 15.9 CALM 0 0 1017.5 - 0.0 - - - - - - -
29/10:30pm 16.9 CALM 0 0 1017.5 - 0.0 - - - - - - -
29/10:00pm 18.9 CALM 0 0 1017.5 - 0.0 - - - - - - -
29/09:30pm 20.9 S 3 5 1017.4 - 0.0 - - - - - - -
29/09:00pm 21.4 SSW 2 4 1017.3 - 0.0 - - - - - - -
29/08:30pm 23.7 E 4 8 1017.2 - 0.0 - - - - - - -
29/08:00pm 24.5 W 4 9 1016.9 - 0.0 - - - - - - -
29/07:30pm 22.6 SSW 1 4 1016.5 - 0.0 - - - - - - -
29/07:00pm 22.1 SE 3 4 1016.1 - 0.0 - - - - - - -
29/06:30pm 22.6 SSE 1 4 1015.9 - 0.0 - - - - - - -
29/06:00pm 23.4 S 3 4 1015.6 - 0.0 - - - - - - -
29/05:30pm 25.9 ENE 1 5 1015.4 - 0.0 - - - - - - -
29/05:00pm 28.3 E 4 6 1015.2 - 0.0 - - - - - - -
29/04:30pm 29.9 ENE 5 8 1014.9 - 0.0 - - - - - - -
29/04:00pm 30.5 NNE 5 8 1014.7 - 0.0 - - - - - - -
29/03:30pm 30.8 NNW 6 9 1014.4 - 0.0 - - - - - - -
29/03:00pm 31.3 E 6 9 1014.2 - 0.0 - - - - - - -
29/02:30pm 31.4 E 6 10 1014.3 - 0.0 - - - - - - -
29/02:00pm 31.7 NE 8 14 1014.5 - 0.0 - - - - - - -
29/01:30pm 31.4 ENE 7 13 1014.8 - 0.0 - - - - - - -
29/01:00pm 31.6 ENE 7 14 1015.3 - 0.0 - - - - - - -
29/12:30pm 31.0 NE 7 12 1015.8 - 0.0 - - - - - - -
29/12:00pm 30.9 ENE 8 11 1016.3 - 0.0 - - - - - - -
29/11:30am 30.2 ENE 8 14 1016.8 - 0.0 - - - - - - -
29/11:00am 30.2 ESE 8 12 1017.3 - 0.0 - - - - - - -
29/10:30am 29.2 SE 9 14 1017.7 - 0.0 - - - - - - -
29/10:00am 28.8 SE 8 13 1018.3 - 0.0 - - - - - - -
29/09:30am 28.5 SE 6 11 1018.6 - 0.0 - - - - - - -
29/09:00am 25.2 SSW 5 7 1018.9 - 0.0 - - - - - - -
29/08:30am 22.4 S 4 7 1019.2 - 0.0 - - - - - - -
29/08:00am 19.9 S 5 7 1019.2 - 0.0 - - - - - - -
29/07:30am 17.4 SSW 6 9 1019.0 - 0.0 - - - - - - -

Other Formats:

Comma delimited format used in spreadsheet applications
http://www.bom.gov.au/fwo/IDW60701/IDW60701.94100.axf

JavaScript Object Notation format (JSON) in row-major order
http://www.bom.gov.au/fwo/IDW60701/IDW60701.94100.json